Tiempo atmosférico en la estación meteorológica de Santa Susana, Barcelona (45 m.)



Fecha
DESCASC
Temp. máxima en grados centígrados (hora)
DESCASC
Temp. mínima en grados centígrados (hora)
DESCASC
Temp. media en grados centígrados
DESCASC
Racha de viento máxima en m/sg (hora)
DESCASC
Velocidad máxima media en intervalos de 10 minutos(hora)
DESCASC
Precipitaciones diarias en mm
DESCASC
Precipitaciones de 00:00 a 06:00 en mm
DESCASC
Precipitaciones de 06:00 a 12:00 en mm
DESCASC
Precipitaciones de 12:00 a 18:00 en mm
DESCASC
Precipitaciones de 18:00 a 24:00 en mm
DESCASC

Gráficas

Temp. máximas Temp. mínimas Temp. medias Precipitaciones Rachas de viento máximas Velocidades máximas media en intervalos de 10 minutos

Datos horarios

Fecha y hora oficial Temperatura (ºC) Velocidad del viento (km/h) Dirección del viento Racha (km/h) Dirección de racha Precipitación (mm) Presión (hPa) Tendencia (hPa) Humedad (%)
2020-08-14 23:00:00 21.6 0 Calma 5 Este 0 -- -- 85
2020-08-14 22:00:00 22.7 0 Calma 7 Oeste 0 -- -- 80
2020-08-14 21:00:00 24.1 0 Calma 13 Sudoeste 0 -- -- 71
2020-08-14 20:00:00 24.7 6 Oeste 19 Oeste 0 -- -- 68
2020-08-14 19:00:00 24.9 5 Oeste 18 Oeste 0 -- -- 65
2020-08-14 18:00:00 26.3 13 Oeste 26 Oeste 0 -- -- 60
2020-08-14 17:00:00 25.7 11 Oeste 27 Oeste 0 -- -- 59
2020-08-14 16:00:00 26.3 13 Oeste 28 Oeste 0 -- -- 59
2020-08-14 15:00:00 26.8 12 Oeste 28 Oeste 0 -- -- 56
2020-08-14 14:00:00 27 12 Oeste 26 Oeste 0 -- -- 56
2020-08-14 13:00:00 27.2 11 Oeste 27 Oeste 0 -- -- 56
2020-08-14 12:00:00 26.9 12 Oeste 22 Oeste 0 -- -- 63
2020-08-14 11:00:00 27.1 10 Oeste 18 Oeste 0 -- -- 63
2020-08-14 10:00:00 25.8 6 Sudoeste 15 Sudoeste 0 -- -- 70
2020-08-14 09:00:00 22.2 0 Calma -- -- 0 -- -- 81
2020-08-14 08:00:00 20.7 0 Calma 6 Noroeste 0 -- -- 83
2020-08-14 07:00:00 20.5 0 Calma 6 Este 0 -- -- 81
2020-08-14 06:00:00 21.4 3 Este 7 Este 0 -- -- 78
2020-08-14 05:00:00 21.1 3 Este 5 Este 0 -- -- 78
2020-08-14 04:00:00 21.1 3 Este 8 Norte 0 -- -- 79
2020-08-14 03:00:00 22.2 2 Noroeste 10 Noroeste 0 -- -- 73
2020-08-14 02:00:00 23.3 5 Este 12 Este 0 -- -- 71
2020-08-14 01:00:00 23.8 7 Este 19 Nordeste 0 -- -- 78
2020-08-14 00:00:00 24.4 8 Este 21 Este 0 -- -- 80
2020-08-13 23:00:00 25 7 Este 13 Este 0 -- -- 75
2020-08-13 22:00:00 24.7 2 Noroeste 8 Norte 0 -- -- 74
2020-08-13 21:00:00 24.6 3 Noroeste 13 Norte 0 -- -- 70
2020-08-13 20:00:00 25.3 4 Noroeste 16 Norte 0 -- -- 66
2020-08-13 19:00:00 26.8 4 Sudoeste 17 Oeste 0 -- -- 74
2020-08-13 18:00:00 27.2 9 Oeste 23 Oeste 0 -- -- 76
2020-08-13 17:00:00 28.9 0 Calma 19 Sudoeste 0 -- -- 63
2020-08-13 16:00:00 27.5 5 Oeste 24 Oeste 0 -- -- 74
2020-08-13 15:00:00 27.5 8 Oeste 23 Oeste 0 -- -- 75
2020-08-13 14:00:00 27.3 8 Oeste 23 Sudoeste 0 -- -- 73
2020-08-13 13:00:00 26.7 4 Oeste 18 Oeste 0 -- -- 73
2020-08-13 12:00:00 27.3 2 Este 14 Oeste 0 -- -- 69
2020-08-13 11:00:00 25.8 0 Calma 14 Oeste 0 -- -- 69
2020-08-13 10:00:00 26.3 5 Este 12 Este 0 -- -- 66
2020-08-13 09:00:00 23.6 3 Noroeste 7 Norte 0 -- -- 75
2020-08-13 08:00:00 21.5 0 Calma 8 Noroeste 0 -- -- 84
2020-08-13 07:00:00 21.6 6 Este 14 Este 0 -- -- 83
2020-08-13 06:00:00 20.2 0 Calma 4 Noroeste 0 -- -- 90
2020-08-13 05:00:00 20.7 2 Noroeste 7 Noroeste 0 -- -- 90
2020-08-13 04:00:00 21.3 0 Calma 4 Noroeste 0 -- -- 90
2020-08-13 03:00:00 22.5 0 Calma 5 Este 0 -- -- 89
2020-08-13 02:00:00 23.8 0 Calma 14 Oeste 0 -- -- 86
2020-08-13 01:00:00 25.7 0 Calma 17 Sudoeste 0 -- -- 84
2020-08-13 00:00:00 25.9 0 Calma 21 Sudoeste 0 -- -- 84
2020-08-12 23:00:00 26.1 8 Sudoeste 24 Oeste 0 -- -- 85
2020-08-12 22:00:00 25.9 5 Sudoeste 15 Sudoeste 0 -- -- 83
2020-08-12 21:00:00 26.3 4 Sudoeste 22 Sudoeste 0 -- -- 80
2020-08-12 20:00:00 26.5 10 Oeste 21 Oeste 0 -- -- 84
2020-08-12 19:00:00 27 10 Oeste 29 Oeste 0 -- -- 81
2020-08-12 18:00:00 28 10 Oeste 33 Sudoeste 0 -- -- 71
2020-08-12 17:00:00 29.1 14 Sudoeste 28 Sudoeste 0 -- -- 56
2020-08-12 16:00:00 29.9 13 Oeste 24 Oeste 0 -- -- 63
2020-08-12 15:00:00 29.2 7 Oeste 22 Oeste 0 -- -- 61
2020-08-12 14:00:00 29.5 0 Calma 16 Oeste 0 -- -- 55
2020-08-12 13:00:00 28.2 6 Oeste 18 Oeste 0 -- -- 61
2020-08-12 12:00:00 28.2 4 Oeste 14 Sudoeste 0 -- -- 58
2020-08-12 11:00:00 27.4 8 Este 13 Este 0 -- -- 65
2020-08-12 10:00:00 25 0 Calma 3 Norte 0 -- -- 79
2020-08-12 09:00:00 23.2 0 Calma 5 Este 0 -- -- 80
2020-08-12 08:00:00 21.8 0 Calma 9 Este 0 -- -- 79
2020-08-12 07:00:00 21.4 2 Norte 8 Este 0 -- -- 78
2020-08-12 06:00:00 20.6 0 Calma 7 Este 0 -- -- 79
2020-08-12 05:00:00 20.5 0 Calma 5 Este 0 -- -- 81
2020-08-12 04:00:00 20.3 0 Calma 6 Noroeste 0 -- -- 79
2020-08-12 03:00:00 20.6 0 Calma 5 Este 0 -- -- 80
2020-08-12 02:00:00 19.3 0 Calma 5 Norte 0 -- -- 84
2020-08-12 01:00:00 20.2 3 Este 6 Noroeste 0 -- -- 83
2020-08-12 00:00:00 20.6 0 Calma 7 Noroeste 0 -- -- 88
2020-08-11 23:00:00 22.1 0 Calma 4 Oeste 0 -- -- 90
2020-08-11 22:00:00 23.4 0 Calma 2 Oeste 0 -- -- 89
2020-08-11 21:00:00 24.9 0 Calma 13 Oeste 0 -- -- 85
2020-08-11 20:00:00 26.5 8 Oeste 13 Oeste 0 -- -- 75
2020-08-11 19:00:00 27 5 Oeste 19 Sudoeste 0 -- -- 69
2020-08-11 18:00:00 29.4 9 Oeste 28 Oeste 0 -- -- 55
2020-08-11 17:00:00 27.7 17 Oeste 27 Sudoeste 0 -- -- 62
2020-08-11 16:00:00 29 14 Oeste 28 Sudoeste 0 -- -- 68
2020-08-11 15:00:00 28.8 14 Oeste 29 Sudoeste 0 -- -- 66
2020-08-11 14:00:00 28.9 13 Oeste 24 Oeste 0 -- -- 61
2020-08-11 13:00:00 28.8 12 Oeste 26 Oeste 0 -- -- 63
2020-08-11 12:00:00 28.4 13 Oeste 21 Sudoeste 0 -- -- 57
2020-08-11 11:00:00 27.7 7 Sudoeste 17 Oeste 0 -- -- 66
2020-08-11 10:00:00 25.8 5 Oeste 11 Oeste 0 -- -- 75
2020-08-11 09:00:00 24 0 Calma 4 Oeste 0 -- -- 86
2020-08-11 08:00:00 22.2 0 Calma 6 Este 0 -- -- 89
2020-08-11 07:00:00 21.1 0 Calma 0 Calma 0 -- -- 90
2020-08-11 06:00:00 21.1 0 Calma -- -- 0 -- -- 89
2020-08-11 05:00:00 21.9 0 Calma 5 Este 0 -- -- 87
2020-08-11 04:00:00 22.9 0 Calma 12 Nordeste 0 -- -- 84
2020-08-11 03:00:00 24.1 6 Nordeste 14 Este 0 -- -- 79
2020-08-11 02:00:00 21.6 4 Este 8 Este 0 -- -- 75
2020-08-11 01:00:00 21.8 0 Calma 4 Este 0 -- -- 73
2020-08-11 00:00:00 22.5 2 Noroeste 8 Noroeste 0 -- -- 69
2020-08-10 23:00:00 24.6 0 Calma 18 Oeste 0 -- -- 66
2020-08-10 22:00:00 26.2 6 Sudoeste 18 Oeste 0 -- -- 70
2020-08-10 21:00:00 26.4 6 Sudoeste 17 Oeste 0 -- -- 73
2020-08-10 20:00:00 27 3 Sudoeste 26 Sudoeste 0 -- -- 73
2020-08-10 19:00:00 27.3 8 Sudoeste 28 Sudoeste 0 -- -- 71
2020-08-10 18:00:00 27.5 16 Sudoeste 37 Sudoeste 0 -- -- 74
2020-08-10 17:00:00 26.7 11 Sudoeste 36 Oeste 0 -- -- 74
2020-08-10 16:00:00 28 17 Sudoeste 30 Sudoeste 0 -- -- 66
2020-08-10 15:00:00 28.9 17 Oeste 32 Oeste 0 -- -- 64
2020-08-10 14:00:00 28.8 10 Oeste 22 Oeste 0 -- -- 65
2020-08-10 13:00:00 28.1 8 Oeste 22 Oeste 0 -- -- 59
2020-08-10 12:00:00 28.5 4 Oeste 15 Sudoeste 0 -- -- 49
2020-08-10 11:00:00 27.8 7 Oeste 12 Oeste 0 -- -- 51
2020-08-10 10:00:00 25.3 3 Este 8 Sudeste 0 -- -- 65
2020-08-10 09:00:00 21.2 2 Este 6 Este 0 -- -- 83
2020-08-10 08:00:00 20.2 0 Calma 6 Este 0 -- -- 88
2020-08-10 07:00:00 20.5 3 Este 9 Este 0 -- -- 88
2020-08-10 06:00:00 20.4 0 Calma -- -- 0 -- -- 90
2020-08-10 05:00:00 20.6 0 Calma 3 Este 0 -- -- 90
2020-08-10 04:00:00 21.1 0 Calma 6 Este 0 -- -- 90
2020-08-10 03:00:00 21.5 0 Calma 4 Noroeste 0 -- -- 90
2020-08-10 02:00:00 22.3 0 Calma 6 Nordeste 0 -- -- 90
2020-08-10 01:00:00 22.6 0 Calma 8 Este 0 -- -- 90
2020-08-10 00:00:00 23.5 0 Calma 9 Norte 0 -- -- 88
2020-08-09 23:00:00 24.3 0 Calma 6 Este 0 -- -- 89
2020-08-09 22:00:00 25.6 2 Este 13 Sudoeste 0 -- -- 84
2020-08-09 21:00:00 26.1 4 Oeste 9 Oeste 0 -- -- 84
2020-08-09 20:00:00 26.9 0 Calma 11 Oeste 0 -- -- 79
2020-08-09 19:00:00 27.8 5 Oeste 12 Sudoeste 0 -- -- 74
2020-08-09 18:00:00 27.4 6 Oeste 17 Sudoeste 0 -- -- 77
2020-08-09 17:00:00 27.8 3 Oeste 20 Oeste 0 -- -- 73
2020-08-09 16:00:00 27.8 8 Oeste 20 Oeste 0 -- -- 74
2020-08-09 15:00:00 28.2 13 Oeste 22 Sudoeste 0 -- -- 68
2020-08-09 14:00:00 28.4 5 Oeste 21 Oeste 0 -- -- 68
2020-08-09 13:00:00 27.8 13 Sudoeste 23 Sudoeste 0 -- -- 71
2020-08-09 12:00:00 28.2 10 Sudoeste 18 Oeste 0 -- -- 64
2020-08-09 11:00:00 29.7 3 Sudeste 14 Noroeste 0 -- -- 49
2020-08-09 10:00:00 28.2 8 Norte 17 Nordeste 0 -- -- 54
2020-08-09 09:00:00 23.7 0 Calma 4 Este 0 -- -- 79
2020-08-09 08:00:00 22 2 Este 8 Sudeste 0 -- -- 83
2020-08-09 07:00:00 20.9 2 Este 8 Este 0 -- -- 86
2020-08-09 06:00:00 20.1 2 Este 7 Sudeste 0 -- -- 87
2020-08-09 05:00:00 19.6 0 Calma 5 Este 0 -- -- 88
2020-08-09 04:00:00 19.5 0 Calma 5 Norte 0 -- -- 88
2020-08-09 03:00:00 20 0 Calma 6 Este 0 -- -- 86
2020-08-09 02:00:00 20.2 0 Calma 4 Este 0 -- -- 87
2020-08-09 01:00:00 20.7 0 Calma 3 Este 0 -- -- 85
2020-08-09 00:00:00 20.9 0 Calma 4 Este 0 -- -- 85
2020-08-08 23:00:00 22.2 0 Calma 5 Este 0 -- -- 83
2020-08-08 22:00:00 22.9 0 Calma 8 Sudoeste 0 -- -- 80
2020-08-08 21:00:00 25.3 2 Sudoeste 18 Oeste 0 -- -- 73
2020-08-08 20:00:00 26.8 10 Sudoeste 29 Sudoeste 0 -- -- 63
2020-08-08 19:00:00 27.5 12 Sudoeste 26 Oeste 0 -- -- 59
2020-08-08 18:00:00 29.2 12 Oeste 33 Oeste 0 -- -- 57
2020-08-08 17:00:00 28.7 13 Sudoeste 31 Oeste 0 -- -- 56
2020-08-08 16:00:00 28.9 17 Sudoeste 32 Sudoeste 0 -- -- 52
2020-08-08 15:00:00 28.7 11 Oeste 22 Oeste 0 -- -- 54
2020-08-08 14:00:00 27.8 9 Oeste 19 Oeste 0 -- -- 69
2020-08-08 13:00:00 27.4 6 Oeste 19 Oeste 0 -- -- 66
2020-08-08 12:00:00 25.5 6 Oeste 12 Oeste 0 -- -- 71
2020-08-08 11:00:00 25.4 6 Este 9 Este 0 -- -- 64
2020-08-08 10:00:00 24.5 4 Este 8 Este 0 -- -- 67
2020-08-08 09:00:00 21.9 0 Calma 4 Norte 0 -- -- 83
2020-08-08 08:00:00 19.8 0 Calma 4 Norte 0 -- -- 85
2020-08-08 07:00:00 18.6 2 Este 8 Este 0 -- -- 85
2020-08-08 06:00:00 18 0 Calma 6 Este 0 -- -- 85
2020-08-08 05:00:00 18.7 3 Este 8 Este 0 -- -- 80
2020-08-08 04:00:00 18.9 0 Calma 5 Este 0 -- -- 81
2020-08-08 03:00:00 20 2 Este 18 Sudoeste 0 -- -- 80
2020-08-08 02:00:00 20.1 3 Oeste 12 Sudoeste 0 -- -- 81
2020-08-08 01:00:00 21.3 0 Calma 20 Oeste 0 -- -- 79
2020-08-08 00:00:00 22.3 3 Oeste 19 Sudoeste 0 -- -- 81
2020-08-07 23:00:00 22.3 0 Calma 6 Sudeste 0 -- -- 81
2020-08-07 22:00:00 24.4 0 Calma 19 Sudoeste 0 -- -- 73
2020-08-07 21:00:00 25.5 7 Sudoeste 20 Sudoeste 0 -- -- 64
2020-08-07 20:00:00 26.4 8 Oeste 30 Sudoeste 0 -- -- 63
2020-08-07 19:00:00 26.8 13 Sudoeste 32 Sudoeste 0 -- -- 63
2020-08-07 18:00:00 27.1 18 Sudoeste 34 Oeste 0 -- -- 61
2020-08-07 17:00:00 27.9 17 Sudoeste 33 Oeste 0 -- -- 60
2020-08-07 16:00:00 27.8 18 Sudoeste 36 Sudoeste 0 -- -- 64
2020-08-07 15:00:00 27.8 18 Sudoeste 35 Sudoeste 0 -- -- 65
2020-08-07 14:00:00 27.9 19 Sudoeste 45 Sudoeste 0 -- -- 66
2020-08-07 13:00:00 27.7 20 Sudoeste 31 Sudoeste 0 -- -- 57
2020-08-07 12:00:00 28.2 8 Oeste 18 Oeste 0 -- -- 46
2020-08-07 11:00:00 26.7 3 Sudoeste 14 Oeste 0 -- -- 55
2020-08-07 10:00:00 25.2 0 Calma 5 Este 0 -- -- 63
2020-08-07 09:00:00 20.5 0 Calma -- -- 0 -- -- 86
2020-08-07 08:00:00 17.7 0 Calma 6 Norte 0 -- -- 90
2020-08-07 07:00:00 16.7 0 Calma -- -- 0 -- -- 90
2020-08-07 06:00:00 16.5 0 Calma 3 Este 0 -- -- 89
2020-08-07 05:00:00 16.8 0 Calma 4 Norte 0 -- -- 89
2020-08-07 04:00:00 17.1 0 Calma 4 Este 0 -- -- 86
2020-08-07 03:00:00 17.8 0 Calma 3 Norte 0 -- -- 85
2020-08-07 02:00:00 17.6 0 Calma 4 Este 0 -- -- 83
2020-08-07 01:00:00 18.4 0 Calma 6 Noroeste 0 -- -- 81
2020-08-07 00:00:00 19.5 0 Calma 6 Norte 0 -- -- 86
2020-08-06 23:00:00 21.5 0 Calma 5 Noroeste 0 -- -- 88
2020-08-06 22:00:00 22.8 0 Calma 6 Sudoeste 0 -- -- 85
2020-08-06 21:00:00 25 5 Sudoeste 14 Sudoeste 0 -- -- 78
2020-08-06 20:00:00 26.4 8 Oeste 23 Sudoeste 0 -- -- 70
2020-08-06 19:00:00 26.8 15 Sudoeste 27 Sudoeste 0 -- -- 65
2020-08-06 18:00:00 27.6 14 Sudoeste 29 Oeste 0 -- -- 56
2020-08-06 17:00:00 28.4 14 Sudoeste 23 Oeste 0 -- -- 44
2020-08-06 16:00:00 28.6 12 Oeste 21 Oeste 0 -- -- 35
2020-08-06 15:00:00 28.2 9 Sudoeste 21 Oeste 0 -- -- 42
2020-08-06 14:00:00 27.5 8 Oeste 21 Oeste 0 -- -- 44
2020-08-06 13:00:00 27.3 6 Oeste 20 Oeste 0 -- -- 40
2020-08-06 12:00:00 27.4 8 Oeste 18 Oeste 0 -- -- 45
2020-08-06 11:00:00 27.4 6 Oeste 12 Este 0 -- -- 51
2020-08-06 10:00:00 24.5 4 Este 9 Este 0 -- -- 64
2020-08-06 09:00:00 20.1 0 Calma 8 Norte 0 -- -- 85
2020-08-06 08:00:00 18.8 4 Noroeste 26 Sudeste 0 -- -- 84
2020-08-06 07:00:00 17.7 0 Calma -- -- 0 -- -- 90
2020-08-06 06:00:00 17.4 0 Calma -- -- 0 -- -- 90
2020-08-06 05:00:00 17.3 0 Calma -- -- 0 -- -- 90
2020-08-06 04:00:00 17.5 0 Calma -- -- 0 -- -- 90
2020-08-06 03:00:00 18.2 0 Calma -- -- 0 -- -- 89
2020-08-06 02:00:00 17.9 0 Calma -- -- 0 -- -- 89
2020-08-06 01:00:00 18.2 0 Calma 2 Norte 0 -- -- 88
2020-08-06 00:00:00 18.8 0 Calma 4 Norte 0 -- -- 85
2020-08-05 23:00:00 19.4 0 Calma 5 Norte 0 -- -- 83
2020-08-05 22:00:00 20 0 Calma 5 Nordeste 0 -- -- 79
2020-08-05 21:00:00 21.2 0 Calma 8 Sudoeste 0 -- -- 71
2020-08-05 20:00:00 -- -- -- -- -- -- -- -- --
2020-08-05 19:00:00 24.5 9 Oeste 23 Oeste 0 -- -- 50
2020-08-05 18:00:00 24.9 10 Oeste 22 Oeste 0 -- -- 50
2020-08-05 17:00:00 25.8 12 Oeste 26 Sudoeste 0 -- -- 48
2020-08-05 16:00:00 -- -- -- -- -- -- -- -- --
2020-08-05 15:00:00 26.6 10 Oeste 26 Oeste 0 -- -- 46
2020-08-05 14:00:00 26.4 9 Oeste 24 Oeste 0 -- -- 46
2020-08-05 13:00:00 26.2 10 Oeste 27 Oeste 0 -- -- 47
2020-08-05 12:00:00 25.4 9 Sudoeste 19 Sudoeste 0 -- -- 50
2020-08-05 11:00:00 25.8 4 Oeste 10 Norte 0 -- -- 48
2020-08-05 10:00:00 22.7 3 Noroeste 9 Este 0 -- -- 49
2020-08-05 09:00:00 22.1 4 Norte 10 Noroeste 0 -- -- 55
2020-08-05 08:00:00 20.3 4 Norte 10 Norte 0 -- -- 80
2020-08-05 07:00:00 18.6 3 Este 7 Sudeste 0 -- -- 89
2020-08-05 06:00:00 18.5 0 Calma 8 Norte 0 -- -- 89
2020-08-05 05:00:00 19.1 4 Nordeste 14 Este 0 -- -- 89
2020-08-05 04:00:00 18.4 2 Este 4 Este 0 -- -- 90
2020-08-05 03:00:00 18.2 0 Calma -- -- 0 -- -- 90
2020-08-05 02:00:00 18.6 0 Calma 3 Este 0 -- -- 90
2020-08-05 01:00:00 18.9 0 Calma 4 Noroeste 0 -- -- 90
2020-08-05 00:00:00 19.5 0 Calma 5 Este 0 -- -- 89
2020-08-04 23:00:00 20.9 3 Este 5 Este 0 -- -- 85
2020-08-04 22:00:00 22.2 0 Calma 17 Oeste 0 -- -- 78
2020-08-04 21:00:00 23.1 3 Oeste 14 Oeste 0 -- -- 74
2020-08-04 20:00:00 23.5 3 Oeste 20 Oeste 0 -- -- 70
2020-08-04 19:00:00 23.6 6 Sudoeste 26 Oeste 0 -- -- 69
2020-08-04 18:00:00 23.3 11 Sudoeste 30 Sudoeste 0 -- -- 66
2020-08-04 17:00:00 24.3 17 Sudoeste 36 Sudoeste 0 -- -- 60
2020-08-04 16:00:00 24.2 16 Sudoeste 35 Sudoeste 0 -- -- 60
2020-08-04 15:00:00 24.6 13 Oeste 32 Sudoeste 0 -- -- 61
2020-08-04 14:00:00 24.3 16 Sudoeste 29 Oeste 0 -- -- 59
2020-08-04 13:00:00 23.5 6 Oeste 14 Oeste 0 -- -- 61
2020-08-04 12:00:00 21.3 0 Calma 5 Norte 0 -- -- 84
2020-08-04 11:00:00 20.1 0 Calma 4 Norte 0.1 -- -- 90
2020-08-04 10:00:00 19.2 0 Calma 5 Nordeste 0.2 -- -- 90
2020-08-04 09:00:00 18.8 2 Sudoeste 7 Norte 3.1 -- -- 90
2020-08-04 08:00:00 19.1 0 Calma 6 Norte 0 -- -- 90
2020-08-04 07:00:00 18.7 0 Calma 6 Norte 0 -- -- 90
2020-08-04 06:00:00 18.6 0 Calma 12 Este 0.2 -- -- 90
2020-08-04 05:00:00 18.8 4 Nordeste 10 Este 0.8 -- -- 90
2020-08-04 04:00:00 19.6 3 Nordeste 9 Nordeste 2.3 -- -- 89
2020-08-04 03:00:00 20.8 0 Calma 6 Norte 0 -- -- 85
2020-08-04 02:00:00 20.5 0 Calma 8 Este 0 -- -- 88
2020-08-04 01:00:00 20.3 0 Calma 5 Este 0 -- -- 88
2020-08-04 00:00:00 20.7 2 Este 7 Este 0 -- -- 86
2020-08-03 23:00:00 20.6 3 Este 6 Este 0 -- -- 88
2020-08-03 22:00:00 20.4 0 Calma 8 Este 0.1 -- -- 88
2020-08-03 21:00:00 22.3 0 Calma 11 Oeste 0 -- -- 66
2020-08-03 20:00:00 23.4 5 Oeste 16 Sudoeste 0 -- -- 60
2020-08-03 19:00:00 24.2 5 Oeste 24 Sudoeste 0 -- -- 58
2020-08-03 18:00:00 24.3 12 Oeste 25 Oeste 0 -- -- 56
2020-08-03 17:00:00 24.8 11 Oeste 22 Sudoeste 0 -- -- 51
2020-08-03 16:00:00 24.9 10 Oeste 24 Oeste 0 -- -- 49
2020-08-03 15:00:00 25.2 9 Oeste 22 Oeste 0 -- -- 49
2020-08-03 14:00:00 25.6 8 Oeste 20 Oeste 0 -- -- 50
2020-08-03 13:00:00 24.9 7 Oeste 16 Oeste 0 -- -- 49
2020-08-03 12:00:00 23.2 4 Sudoeste 15 Oeste 0 -- -- 55
2020-08-03 11:00:00 20.8 0 Calma 9 Norte 0 -- -- 81
2020-08-03 10:00:00 19.6 3 Norte 8 Nordeste 0 -- -- 88
2020-08-03 09:00:00 19 4 Norte 8 Norte 0 -- -- 90
2020-08-03 08:00:00 18.5 0 Calma 6 Norte 0.2 -- -- 90
2020-08-03 07:00:00 18.3 2 Noroeste 9 Noroeste 0.8 -- -- 90
2020-08-03 06:00:00 18.2 0 Calma 8 Norte 0.2 -- -- 90
2020-08-03 05:00:00 18.9 3 Norte 17 Este 10 -- -- 90
2020-08-03 04:00:00 18.8 5 Norte 11 Noroeste 6.4 -- -- 90
2020-08-03 03:00:00 21.4 0 Calma 5 Oeste 0 -- -- 90
2020-08-03 02:00:00 21.6 0 Calma 7 Oeste 0.5 -- -- 90
2020-08-03 01:00:00 23 0 Calma 5 Oeste 0 -- -- 90
2020-08-03 00:00:00 23.3 0 Calma 12 Sudoeste 0.3 -- -- 88
2020-08-02 23:00:00 25.4 6 Oeste 15 Oeste 0 -- -- 73
2020-08-02 22:00:00 25.3 6 Oeste 14 Oeste 0 -- -- 73
2020-08-02 21:00:00 25.3 9 Oeste 17 Oeste 0 -- -- 73
2020-08-02 20:00:00 25.5 9 Oeste 17 Oeste 0 -- -- 71
2020-08-02 19:00:00 25.8 10 Oeste 23 Oeste 0 -- -- 71
2020-08-02 18:00:00 26.2 10 Oeste 24 Oeste 0 -- -- 70
2020-08-02 17:00:00 28.2 13 Oeste 26 Oeste 0 -- -- 64
2020-08-02 16:00:00 28.2 15 Oeste 29 Oeste 0 -- -- 61
2020-08-02 15:00:00 28.4 13 Oeste 30 Oeste 0 -- -- 61
2020-08-02 14:00:00 27.3 13 Oeste 24 Oeste 0 -- -- 59
2020-08-02 13:00:00 28.6 11 Oeste 23 Oeste 0 -- -- 55
2020-08-02 12:00:00 27.2 12 Oeste 23 Sudoeste 0 -- -- 59
2020-08-02 11:00:00 27.2 7 Oeste 18 Sudoeste 0 -- -- 60
2020-08-02 10:00:00 27.5 3 Este 13 Norte 0 -- -- 53
2020-08-02 09:00:00 24.6 6 Norte 14 Norte 0 -- -- 61
2020-08-02 08:00:00 23 6 Norte 14 Norte 0 -- -- 72
2020-08-02 07:00:00 21 2 Este 8 Nordeste 0 -- -- 84
2020-08-02 06:00:00 20.6 0 Calma 6 Este 0 -- -- 86
2020-08-02 05:00:00 20.9 2 Este 5 Este 0 -- -- 85
2020-08-02 04:00:00 21.5 2 Este 6 Este 0 -- -- 81
2020-08-02 03:00:00 22.2 3 Este 7 Este 0 -- -- 79
2020-08-02 02:00:00 22.8 3 Este 5 Este 0 -- -- 79
2020-08-02 01:00:00 22.8 2 Sudoeste 3 Este 0 -- -- 80
2020-08-02 00:00:00 23.4 0 Calma 4 Este 0 -- -- 74
2020-08-01 23:00:00 23 2 Sudoeste 6 Este 0 -- -- 68
2020-08-01 22:00:00 24.7 0 Calma 11 Sudoeste 0 -- -- 59
2020-08-01 21:00:00 26.6 2 Sudoeste 19 Sudoeste 0 -- -- 56
2020-08-01 20:00:00 30.1 9 Sudoeste 23 Oeste 0 -- -- 42
2020-08-01 19:00:00 30.5 10 Sudoeste 25 Oeste 0 -- -- 42
2020-08-01 18:00:00 31.1 12 Sudoeste 30 Sudoeste 0 -- -- 42
2020-08-01 17:00:00 31.7 14 Sudoeste 31 Sudoeste 0 -- -- 44
2020-08-01 16:00:00 31.6 14 Sudoeste 30 Sudoeste 0 -- -- 47
2020-08-01 15:00:00 30.6 16 Sudoeste 31 Oeste 0 -- -- 50
2020-08-01 14:00:00 30.1 15 Oeste 28 Oeste 0 -- -- 55
2020-08-01 13:00:00 30 12 Oeste 26 Sudoeste 0 -- -- 55
2020-08-01 12:00:00 29.6 7 Oeste 19 Sudoeste 0 -- -- 57
2020-08-01 11:00:00 29.3 10 Oeste 17 Oeste 0 -- -- 56
2020-08-01 10:00:00 28.1 5 Sudeste 13 Sudeste 0 -- -- 58
2020-08-01 09:00:00 23.8 0 Calma 6 Este 0 -- -- 73
2020-08-01 08:00:00 20.7 0 Calma 4 Este 0 -- -- 83
2020-08-01 07:00:00 20.1 0 Calma 4 Este 0 -- -- 84
2020-08-01 06:00:00 20.3 0 Calma 6 Este 0 -- -- 83
2020-08-01 05:00:00 21.2 2 Este 6 Este 0 -- -- 79
2020-08-01 04:00:00 21.2 0 Calma 5 Este 0 -- -- 78
2020-08-01 03:00:00 21.6 0 Calma 6 Este 0 -- -- 78
2020-08-01 02:00:00 21.9 2 Este 10 Este 0 -- -- 74
2020-08-01 01:00:00 21.6 3 Este 7 Este 0 -- -- 75
2020-08-01 00:00:00 22.1 2 Este 4 Este 0 -- -- 76
2020-07-31 23:00:00 22.7 0 Calma 6 Norte 0 -- -- 76
2020-07-31 22:00:00 25.4 0 Calma 22 Sudoeste 0 -- -- 66
2020-07-31 21:00:00 27.2 14 Oeste 23 Sudoeste 0 -- -- 56
2020-07-31 20:00:00 28.3 11 Oeste 22 Oeste 0 -- -- 55
2020-07-31 19:00:00 29.2 16 Sudoeste 24 Sudoeste 0 -- -- 47
2020-07-31 18:00:00 30 14 Sudoeste 28 Sudoeste 0 -- -- 46
2020-07-31 17:00:00 29.4 15 Oeste 27 Oeste 0 -- -- 58
2020-07-31 16:00:00 29 8 Oeste 24 Sudoeste 0 -- -- 66
2020-07-31 15:00:00 28.9 10 Oeste 21 Oeste 0 -- -- 71
2020-07-31 14:00:00 27.5 8 Oeste 23 Oeste 0 -- -- 78
2020-07-31 13:00:00 28 3 Oeste 23 Oeste 0 -- -- 70
2020-07-31 12:00:00 26.4 12 Oeste 19 Oeste 0 -- -- 75
2020-07-31 11:00:00 27.2 11 Oeste 19 Sudoeste 0 -- -- 70
2020-07-31 10:00:00 27.4 4 Este 12 Noroeste 0 -- -- 65
2020-07-31 09:00:00 24.9 4 Norte 9 Norte 0 -- -- 70
2020-07-31 08:00:00 22.9 4 Norte 9 Este 0 -- -- 81
2020-07-31 07:00:00 21 0 Calma 4 Este 0 -- -- 89
2020-07-31 06:00:00 20.2 0 Calma 10 Noroeste 0 -- -- 83
2020-07-31 05:00:00 19.4 0 Calma 5 Este 0 -- -- 81
2020-07-31 04:00:00 18.2 0 Calma 6 Este 0 -- -- 81
2020-07-31 03:00:00 17.6 0 Calma 5 Este 0 -- -- 80
2020-07-31 02:00:00 17.6 0 Calma 4 Este 0 -- -- 79
2020-07-31 01:00:00 18.6 0 Calma 5 Norte 0 -- -- 79
2020-07-31 00:00:00 19.6 0 Calma 4 Este 0 -- -- 80
2020-07-30 23:00:00 20.8 0 Calma 8 Noroeste 0 -- -- 79
2020-07-30 22:00:00 22.3 0 Calma 4 Oeste 0 -- -- 84
2020-07-30 21:00:00 24.9 0 Calma 10 Oeste 0 -- -- 82
2020-07-30 20:00:00 27.5 6 Oeste 17 Oeste 0 -- -- 74
2020-07-30 19:00:00 28.3 7 Oeste 18 Oeste 0 -- -- 59
2020-07-30 18:00:00 28.3 12 Oeste 21 Oeste 0 -- -- 59
2020-07-30 17:00:00 29.2 9 Oeste 22 Oeste 0 -- -- 51
2020-07-30 16:00:00 29.6 10 Oeste 22 Oeste 0 -- -- 45
2020-07-30 15:00:00 29.9 10 Oeste 21 Oeste 0 -- -- 44
2020-07-30 14:00:00 28.9 9 Oeste 22 Oeste 0 -- -- 49
2020-07-30 13:00:00 28.2 8 Oeste 21 Oeste 0 -- -- 61
2020-07-30 12:00:00 28.1 6 Oeste 17 Oeste 0 -- -- 57
2020-07-30 11:00:00 27.5 5 Oeste 16 Sudoeste 0 -- -- 46
2020-07-30 10:00:00 27.3 3 Oeste 7 Oeste 0 -- -- 56
2020-07-30 09:00:00 21.5 0 Calma 2 Este 0 -- -- 83
2020-07-30 08:00:00 18.7 0 Calma 6 Norte 0 -- -- 90
2020-07-30 07:00:00 17.7 0 Calma 4 Norte 0 -- -- 90
2020-07-30 06:00:00 18 0 Calma 4 Norte 0 -- -- 90
2020-07-30 05:00:00 18.2 0 Calma 3 Este 0 -- -- 90
2020-07-30 04:00:00 18.6 0 Calma 4 Este 0 -- -- 90
2020-07-30 03:00:00 19.2 0 Calma 5 Este 0 -- -- 89
2020-07-30 02:00:00 20.2 3 Este 5 Norte 0 -- -- 88
2020-07-30 01:00:00 19.8 0 Calma 5 Este 0 -- -- 89
2020-07-30 00:00:00 20.9 0 Calma 4 Nordeste 0 -- -- 86
2020-07-29 23:00:00 21.3 0 Calma 5 Noroeste 0 -- -- 84
2020-07-29 22:00:00 22.5 0 Calma 5 Oeste 0 -- -- 81
2020-07-29 21:00:00 24.9 4 Oeste 13 Oeste 0 -- -- 71
2020-07-29 20:00:00 26.2 8 Oeste 16 Oeste 0 -- -- 61
2020-07-29 19:00:00 26.5 10 Oeste 19 Oeste 0 -- -- 57
2020-07-29 18:00:00 27.7 12 Oeste 23 Oeste 0 -- -- 54
2020-07-29 17:00:00 28.2 14 Oeste 24 Oeste 0 -- -- 50
2020-07-29 16:00:00 29.4 4 Oeste 20 Oeste 0 -- -- 45
2020-07-29 15:00:00 30.7 5 Oeste 21 Oeste 0 -- -- 44
2020-07-29 14:00:00 30.7 4 Sudoeste 17 Oeste 0 -- -- 43
2020-07-29 13:00:00 30.6 0 Calma 17 Oeste 0 -- -- 45
2020-07-29 12:00:00 28.5 8 Oeste 21 Sudoeste 0 -- -- 52
2020-07-29 11:00:00 30.7 7 Este 19 Este 0 -- -- 41
2020-07-29 10:00:00 27.5 4 Este 13 Este 0 -- -- 51
2020-07-29 09:00:00 24.7 6 Nordeste 10 Este 0 -- -- 65
2020-07-29 08:00:00 20.7 2 Este 4 Este 0 -- -- 88
2020-07-29 07:00:00 19.3 0 Calma 4 Nordeste 0 -- -- 89
2020-07-29 06:00:00 19.4 0 Calma 6 Este 0 -- -- 88
2020-07-29 05:00:00 19.6 0 Calma 6 Norte 0 -- -- 89
2020-07-29 04:00:00 19.9 0 Calma 5 Este 0 -- -- 88
2020-07-29 03:00:00 20.7 2 Este 6 Este 0 -- -- 87
2020-07-29 02:00:00 21.1 0 Calma 8 Noroeste 0 -- -- 89
2020-07-29 01:00:00 21.2 0 Calma 0 Calma 0 -- -- 90
2020-07-29 00:00:00 21.5 0 Calma 6 Norte 0 -- -- 90
2020-07-28 23:00:00 23.2 4 Norte 8 Sudeste 0 -- -- 89
2020-07-28 22:00:00 23.1 0 Calma 12 Este 0 -- -- 88
2020-07-28 21:00:00 25.1 6 Este 14 Este 0 -- -- 83
2020-07-28 20:00:00 26 7 Oeste 15 Oeste 0 -- -- 74
2020-07-28 19:00:00 26 10 Oeste 18 Oeste 0 -- -- 73
2020-07-28 18:00:00 27.5 8 Oeste 22 Oeste 0 -- -- 69
2020-07-28 17:00:00 26.9 13 Oeste 23 Sudoeste 0 -- -- 71
2020-07-28 16:00:00 27.4 13 Oeste 23 Oeste 0 -- -- 65
2020-07-28 15:00:00 27.5 2 Norte 21 Oeste 0 -- -- 60
2020-07-28 14:00:00 28.9 6 Oeste 23 Sudoeste 0 -- -- 61
2020-07-28 13:00:00 26.9 3 Oeste 19 Oeste 0 -- -- 65
2020-07-28 12:00:00 27.4 8 Este 19 Este 0 -- -- 65
2020-07-28 11:00:00 28.6 5 Este 12 Este 0 -- -- 55
2020-07-28 10:00:00 27.1 5 Este 13 Este 0 -- -- 53
2020-07-28 09:00:00 23.9 0 Calma 8 Norte 0 -- -- 75
2020-07-28 08:00:00 21.3 0 Calma 4 Este 0 -- -- 88
2020-07-28 07:00:00 21 0 Calma 8 Noroeste 0 -- -- 88
2020-07-28 06:00:00 21 2 Este 5 Este 0 -- -- 89
2020-07-28 05:00:00 22.1 0 Calma 9 Noroeste 0 -- -- 85
2020-07-28 04:00:00 22.7 2 Norte 17 Noroeste 0 -- -- 82
2020-07-28 03:00:00 22.7 6 Norte 16 Norte 0 -- -- 79
2020-07-28 02:00:00 21.5 0 Calma 5 Oeste 0 -- -- 89
2020-07-28 01:00:00 21.6 2 Oeste 6 Sudoeste 0 -- -- 89
2020-07-28 00:00:00 22.3 2 Oeste 11 Oeste 0 -- -- 86
2020-07-27 23:00:00 24.1 0 Calma 22 Sudoeste 0 -- -- 79
2020-07-27 22:00:00 25.3 6 Sudoeste 21 Sudoeste 0 -- -- 78
2020-07-27 21:00:00 25.8 5 Sudoeste 26 Sudoeste 0 -- -- 78
2020-07-27 20:00:00 26.4 14 Sudoeste 37 Sudoeste 0 -- -- 76
2020-07-27 19:00:00 26.6 16 Sudoeste 34 Sudoeste 0 -- -- 75
2020-07-27 18:00:00 27.4 21 Sudoeste 38 Oeste 0 -- -- 61
2020-07-27 17:00:00 27.8 17 Sudoeste 37 Sudoeste 0 -- -- 67
2020-07-27 16:00:00 27.8 18 Sudoeste 37 Oeste 0 -- -- 64
2020-07-27 15:00:00 27.9 17 Sudoeste 38 Sudoeste 0 -- -- 66
2020-07-27 14:00:00 27.2 16 Sudoeste 38 Sudoeste 0 -- -- 65
2020-07-27 13:00:00 27.1 17 Sudoeste 31 Oeste 0 -- -- 62
2020-07-27 12:00:00 27.2 15 Sudoeste 32 Oeste 0 -- -- 50
2020-07-27 09:00:00 20.8 0 Calma 5 Norte 0 -- -- 90
2020-07-27 08:00:00 18.8 0 Calma 2 Norte 0 -- -- 90
2020-07-27 07:00:00 17.8 0 Calma -- -- 0 -- -- 90
2020-07-27 06:00:00 17.9 0 Calma 0 Calma 0 -- -- 90
2020-07-27 05:00:00 18.3 0 Calma 2 Este 0 -- -- 90
2020-07-27 04:00:00 18.7 0 Calma 3 Noroeste 0 -- -- 90
2020-07-27 03:00:00 19.1 0 Calma 4 Este 0 -- -- 89
2020-07-27 02:00:00 19.7 2 Noroeste 5 Noroeste 0 -- -- 88
2020-07-27 01:00:00 19.7 0 Calma 4 Nordeste 0 -- -- 88
2020-07-27 00:00:00 20.2 0 Calma 5 Oeste 0 -- -- 86
2020-07-26 23:00:00 21 0 Calma 4 Sudeste 0 -- -- 84
2020-07-26 22:00:00 21.9 2 Oeste 4 Oeste 0 -- -- 81
2020-07-26 21:00:00 23.6 2 Sur 10 Oeste 0 -- -- 73
2020-07-26 20:00:00 25 4 Oeste 18 Sudoeste 0 -- -- 64
2020-07-26 19:00:00 25.2 11 Oeste 20 Oeste 0 -- -- 60
2020-07-26 18:00:00 25.5 12 Oeste 22 Oeste 0 -- -- 55
2020-07-26 17:00:00 26.8 12 Oeste 24 Oeste 0 -- -- 51
2020-07-26 16:00:00 26.5 12 Oeste 24 Oeste 0 -- -- 46
2020-07-26 15:00:00 27 10 Oeste 26 Oeste 0 -- -- 47
2020-07-26 14:00:00 28.2 14 Oeste 25 Oeste 0 -- -- 44
2020-07-26 13:00:00 27.4 5 Oeste 18 Oeste 0 -- -- 46
2020-07-26 12:00:00 27.7 4 Sudoeste 16 Este 0 -- -- 44
2020-07-26 11:00:00 27.1 3 Sudeste 17 Este 0 -- -- 44
2020-07-26 10:00:00 26.6 8 Este 17 Este 0 -- -- 59
2020-07-26 09:00:00 22.7 0 Calma 5 Norte 0 -- -- 81
2020-07-26 08:00:00 19.5 0 Calma 3 Norte 0 -- -- 89
2020-07-26 07:00:00 18.1 0 Calma 0 Calma 0 -- -- 90
2020-07-26 06:00:00 18.2 0 Calma 0 Calma 0 -- -- 90
2020-07-26 05:00:00 18.8 0 Calma 0 Calma 0 -- -- 90
2020-07-26 04:00:00 19.6 0 Calma 0 Calma 0 -- -- 90
2020-07-26 03:00:00 20.4 0 Calma 0 Calma 0 -- -- 90
2020-07-26 02:00:00 21.1 0 Calma 5 Norte 0 -- -- 90
2020-07-26 01:00:00 21.9 0 Calma 10 Sudoeste 0 -- -- 89
2020-07-26 00:00:00 23.5 4 Sudoeste 15 Oeste 0 -- -- 86
2020-07-25 23:00:00 24.6 7 Oeste 23 Oeste 0 -- -- 84
2020-07-25 22:00:00 24.8 4 Sudoeste 26 Oeste 0 -- -- 82
2020-07-25 21:00:00 25 15 Sudoeste 30 Oeste 0 -- -- 80
2020-07-25 20:00:00 25.4 13 Sudoeste 31 Sudoeste 0 -- -- 79
2020-07-25 19:00:00 26 17 Sudoeste 34 Oeste 0 -- -- 76
2020-07-25 18:00:00 26.4 16 Sudoeste 35 Sudoeste 0 -- -- 69
2020-07-25 17:00:00 26.3 21 Oeste 38 Sudoeste 0 -- -- 66
2020-07-25 16:00:00 27.4 18 Oeste 39 Sudoeste 0 -- -- 64
2020-07-25 15:00:00 27.2 19 Sudoeste 36 Sudoeste 0 -- -- 61
2020-07-25 14:00:00 28 14 Oeste 28 Oeste 0 -- -- 57
2020-07-25 13:00:00 27.2 8 Oeste 21 Oeste 0 -- -- 66
2020-07-25 12:00:00 26.1 4 Oeste 20 Sudoeste 0 -- -- 64
2020-07-25 11:00:00 26.6 6 Oeste 19 Oeste 0 -- -- 55
2020-07-25 10:00:00 25.3 0 Calma 9 Oeste 0 -- -- 60
2020-07-25 09:00:00 23.1 4 Nordeste 12 Este 0 -- -- 69
2020-07-25 08:00:00 21 6 Este 13 Este 0 -- -- 79
2020-07-25 07:00:00 19.4 2 Nordeste 9 Nordeste 0 -- -- 86
2020-07-25 06:00:00 19 0 Calma 0 Calma 0 -- -- 89
2020-07-25 05:00:00 18.9 0 Calma 3 Este 0 -- -- 88
2020-07-25 04:00:00 18.7 0 Calma 4 Este 0 -- -- 85
2020-07-25 03:00:00 18.6 0 Calma 4 Noroeste 0 -- -- 85
2020-07-25 02:00:00 19.3 0 Calma 4 Este 0 -- -- 83
2020-07-25 01:00:00 20.4 0 Calma 6 Noroeste 0 -- -- 80
2020-07-25 00:00:00 21 0 Calma 9 Nordeste 0 -- -- 80
2020-07-24 23:00:00 22.9 2 Norte 8 Noroeste 0 -- -- 75
2020-07-24 22:00:00 23.7 3 Norte 12 Nordeste 0 -- -- 71
2020-07-24 21:00:00 25.1 7 Norte 15 Norte 0 -- -- 68
2020-07-24 20:00:00 26.3 2 Noroeste 17 Oeste 0 -- -- 71
2020-07-24 19:00:00 26.1 6 Oeste 27 Oeste 0 -- -- 69
2020-07-24 18:00:00 26.8 12 Oeste 31 Sudoeste 0 -- -- 62
2020-07-24 17:00:00 26.9 13 Oeste 26 Sudoeste 0 -- -- 66
2020-07-24 16:00:00 26.7 12 Oeste 26 Oeste 0 -- -- 75
2020-07-24 15:00:00 27.3 14 Oeste 26 Oeste 0 -- -- 59
2020-07-24 14:00:00 27.5 12 Oeste 23 Noroeste 0 -- -- 60
2020-07-24 13:00:00 26.5 10 Oeste 18 Oeste 0 -- -- 56
2020-07-24 12:00:00 27.3 8 Oeste 18 Sudoeste 0 -- -- 52
2020-07-24 11:00:00 26.7 2 Oeste 12 Este 0 -- -- 58
2020-07-24 10:00:00 23.3 3 Noroeste 17 Norte 0 -- -- 70
2020-07-24 09:00:00 21.6 0 Calma 8 Noroeste 0 -- -- 80
2020-07-24 08:00:00 20.6 0 Calma 10 Nordeste 0 -- -- 81
2020-07-24 07:00:00 20.6 0 Calma 4 Noroeste 0 -- -- 79
2020-07-24 06:00:00 20.5 0 Calma 5 Este 0 -- -- 81
2020-07-24 05:00:00 20.8 0 Calma 5 Oeste 0 -- -- 83
2020-07-24 04:00:00 20.7 0 Calma 5 Este 0 -- -- 81
2020-07-24 03:00:00 20.2 0 Calma 5 Este 0 -- -- 83
2020-07-24 02:00:00 20.3 2 Este 6 Este 0 -- -- 79
2020-07-24 01:00:00 20.8 0 Calma 7 Este 0 -- -- 79
2020-07-24 00:00:00 20.8 0 Calma 6 Noroeste 0 -- -- 80
2020-07-23 23:00:00 22.3 2 Este 5 Noroeste 0 -- -- 76
2020-07-23 22:00:00 22.7 0 Calma 4 Sudeste 0 -- -- 75
2020-07-23 21:00:00 25 0 Calma 7 Sudoeste 0 -- -- 64
2020-07-23 20:00:00 27.6 4 Sudoeste 14 Oeste 0 -- -- 51
2020-07-23 19:00:00 27.7 5 Oeste 22 Oeste 0 -- -- 51
2020-07-23 18:00:00 27.7 7 Oeste 22 Sudoeste 0 -- -- 50
2020-07-23 17:00:00 28.3 10 Oeste 24 Oeste 0 -- -- 49
2020-07-23 16:00:00 28.1 13 Oeste 23 Oeste 0 -- -- 49
2020-07-23 15:00:00 27.8 9 Oeste 23 Sudoeste 0 -- -- 49
2020-07-23 14:00:00 27.9 11 Oeste 31 Oeste 0 -- -- 50
2020-07-23 13:00:00 27.4 11 Oeste 22 Oeste 0 -- -- 49
2020-07-23 12:00:00 27.2 12 Oeste 22 Oeste 0 -- -- 46
2020-07-23 11:00:00 28.5 0 Calma 9 Sudoeste 0 -- -- 45
2020-07-23 10:00:00 25 0 Calma 4 Nordeste 0 -- -- 61
2020-07-23 09:00:00 23.8 0 Calma 6 Norte 0 -- -- 63
2020-07-23 08:00:00 21.4 0 Calma 7 Norte 0 -- -- 69
2020-07-23 07:00:00 19.3 0 Calma 5 Este 0 -- -- 75
2020-07-23 06:00:00 18.8 0 Calma 5 Este 0 -- -- 74
2020-07-23 05:00:00 19.5 3 Este 4 Este 0 -- -- 69
2020-07-23 04:00:00 19.4 0 Calma 4 Este 0 -- -- 67
2020-07-23 03:00:00 21.3 0 Calma 5 Este 0 -- -- 60
2020-07-23 02:00:00 20.8 0 Calma 6 Este 0 -- -- 60
2020-07-23 01:00:00 20.2 0 Calma 7 Este 0 -- -- 60
2020-07-23 00:00:00 19.8 0 Calma 5 Este 0 -- -- 60
2020-07-22 23:00:00 20.7 3 Nordeste 6 Este 0 -- -- 59
2020-07-22 22:00:00 22.7 3 Este 16 Sudoeste 0 -- -- 55
2020-07-22 21:00:00 23.8 8 Sudoeste 20 Sudoeste 0 -- -- 49
2020-07-22 20:00:00 25.5 14 Sudoeste 24 Sudoeste 0 -- -- 51
2020-07-22 19:00:00 26.1 9 Oeste 17 Sudoeste 0 -- -- 57
2020-07-22 18:00:00 26.1 8 Oeste 25 Oeste 0 -- -- 60
2020-07-22 17:00:00 26.4 15 Sudoeste 30 Sudoeste 0 -- -- 65
2020-07-22 16:00:00 25.8 13 Sudoeste 26 Oeste 0 -- -- 68
2020-07-22 15:00:00 26.1 11 Oeste 24 Oeste 0 -- -- 64
2020-07-22 14:00:00 26.6 10 Sudoeste 22 Oeste 0 -- -- 63
2020-07-22 13:00:00 25.4 11 Oeste 23 Oeste 0 -- -- 70
2020-07-22 12:00:00 25.2 10 Oeste 18 Oeste 0 -- -- 69
2020-07-22 11:00:00 25 0 Calma 14 Este 0 -- -- 63
2020-07-22 10:00:00 24.7 0 Calma 6 Nordeste 0 -- -- 61
2020-07-22 09:00:00 22.4 0 Calma 7 Oeste 0 -- -- 75
2020-07-22 08:00:00 20.9 5 Este 9 Norte 0 -- -- 85
2020-07-22 07:00:00 20.5 3 Nordeste 10 Noroeste 0 -- -- 84
2020-07-22 06:00:00 20.6 5 Norte 13 Nordeste 0 -- -- 81
2020-07-22 05:00:00 19.7 0 Calma 7 Nordeste 0 -- -- 84
2020-07-22 04:00:00 17.1 3 Este 6 Este 0 -- -- 83
2020-07-22 03:00:00 16.1 0 Calma 6 Este 0 -- -- 84
2020-07-22 02:00:00 16.7 0 Calma 5 Este 0 -- -- 86
2020-07-22 01:00:00 17.1 0 Calma 4 Noroeste 0 -- -- 88
2020-07-22 00:00:00 18.8 0 Calma 5 Noroeste 0 -- -- 88
2020-07-21 23:00:00 22.3 2 Sudoeste 24 Sudoeste 0 -- -- 83
2020-07-21 22:00:00 23 13 Oeste 25 Oeste 0 -- -- 82
2020-07-21 21:00:00 23.5 11 Oeste 25 Sudoeste 0 -- -- 80
2020-07-21 20:00:00 24.4 12 Sudoeste 22 Sudoeste 0 -- -- 79
2020-07-21 19:00:00 25.4 13 Oeste 26 Oeste 0 -- -- 74
2020-07-21 18:00:00 26 10 Oeste 25 Oeste 0 -- -- 69
2020-07-21 17:00:00 26.1 17 Oeste 30 Sudoeste 0 -- -- 69
2020-07-21 16:00:00 26 17 Oeste 29 Sudoeste 0 -- -- 69
2020-07-21 15:00:00 26.6 15 Oeste 30 Sudoeste 0 -- -- 65
2020-07-21 14:00:00 26.6 11 Oeste 23 Oeste 0 -- -- 65
2020-07-21 13:00:00 26.5 8 Oeste 21 Oeste 0 -- -- 62
2020-07-21 12:00:00 26.2 10 Oeste 22 Sudoeste 0 -- -- 65
2020-07-21 11:00:00 25.9 8 Oeste 22 Oeste 0 -- -- 69
2020-07-21 10:00:00 25.1 6 Oeste 14 Sudoeste 0 -- -- 75
2020-07-21 09:00:00 22.9 3 Sudoeste 9 Sudoeste 0 -- -- 85
2020-07-21 08:00:00 18.7 0 Calma 3 Este 0 -- -- 90
2020-07-21 07:00:00 17.9 0 Calma 6 Noroeste 0 -- -- 90
2020-07-21 06:00:00 18.3 0 Calma 6 Noroeste 0 -- -- 90
2020-07-21 05:00:00 18.6 0 Calma 7 Noroeste 0 -- -- 90
2020-07-21 04:00:00 18.9 0 Calma 6 Noroeste 0 -- -- 90
2020-07-21 03:00:00 19.8 0 Calma 10 Oeste 0 -- -- 90
2020-07-21 02:00:00 22.7 8 Oeste 24 Noroeste 0 -- -- 88
2020-07-21 01:00:00 22.6 8 Oeste 15 Oeste 0 -- -- 88
2020-07-21 00:00:00 23.2 9 Oeste 22 Sudoeste 0 -- -- 85
2020-07-20 23:00:00 22.9 9 Oeste 15 Sudoeste 0 -- -- 85
2020-07-20 22:00:00 23.5 10 Oeste 23 Sudoeste 0 -- -- 83
2020-07-20 21:00:00 24 15 Sudoeste 33 Sudoeste 0 -- -- 79
2020-07-20 20:00:00 24.6 19 Sudoeste 31 Oeste 0 -- -- 75
2020-07-20 19:00:00 25 16 Sudoeste 28 Oeste 0 -- -- 66
2020-07-20 18:00:00 24.8 14 Sudoeste 33 Sudoeste 0 -- -- 69
2020-07-20 17:00:00 25.9 15 Sudoeste 35 Oeste 0 -- -- 67
2020-07-20 16:00:00 25.4 14 Sudoeste 35 Sudoeste 0 -- -- 67
2020-07-20 15:00:00 26.9 18 Sudoeste 36 Sudoeste 0 -- -- 61
2020-07-20 14:00:00 26 14 Sudoeste 34 Sudoeste 0 -- -- 67
2020-07-20 13:00:00 25.7 18 Sudoeste 34 Oeste 0 -- -- 70
2020-07-20 12:00:00 25 15 Sudoeste 28 Oeste 0 -- -- 71
2020-07-20 11:00:00 26.1 12 Sudoeste 24 Sudoeste 0 -- -- 59
2020-07-20 10:00:00 25.3 6 Sudoeste 15 Sudoeste 0 -- -- 59
2020-07-20 09:00:00 20.7 0 Calma 5 Este 0 -- -- 78
2020-07-20 08:00:00 17.4 0 Calma 5 Este 0 -- -- 90
2020-07-20 07:00:00 16.1 0 Calma 4 Este 0 -- -- 90
2020-07-20 06:00:00 16.3 0 Calma 5 Este 0 -- -- 89
2020-07-20 05:00:00 16.8 0 Calma 6 Noroeste 0 -- -- 89
2020-07-20 04:00:00 16.5 0 Calma 5 Oeste 0 -- -- 90
2020-07-20 03:00:00 17 0 Calma 6 Este 0 -- -- 90
2020-07-20 02:00:00 17.9 0 Calma 5 Nordeste 0 -- -- 90
2020-07-20 01:00:00 19 0 Calma 5 Este 0 -- -- 90
2020-07-20 00:00:00 20.5 0 Calma 5 Noroeste 0 -- -- 88
2020-07-19 23:00:00 22 0 Calma 16 Oeste 0 -- -- 84
2020-07-19 22:00:00 23.6 10 Oeste 23 Oeste 0 -- -- 78
2020-07-19 21:00:00 23.8 8 Oeste 22 Sudoeste 0 -- -- 76
2020-07-19 20:00:00 25.1 9 Oeste 33 Sudoeste 0 -- -- 70
2020-07-19 19:00:00 25.8 12 Sudoeste 32 Oeste 0 -- -- 66
2020-07-19 18:00:00 26.1 14 Sudoeste 37 Sudoeste 0 -- -- 65
2020-07-19 17:00:00 25.5 20 Sudoeste 36 Oeste 0 -- -- 68
2020-07-19 16:00:00 26.8 17 Sudoeste 34 Sudoeste 0 -- -- 64
2020-07-19 15:00:00 27.1 15 Oeste 29 Oeste 0 -- -- 63
2020-07-19 14:00:00 27.2 3 Oeste 22 Oeste 0 -- -- 64
2020-07-19 13:00:00 26.1 6 Oeste 24 Oeste 0 -- -- 65
2020-07-19 12:00:00 26 10 Oeste 19 Sudoeste 0 -- -- 60
2020-07-19 11:00:00 26.3 7 Sudoeste 14 Oeste 0 -- -- 56
2020-07-19 10:00:00 25.1 3 Oeste 6 Sudoeste 0 -- -- 69
2020-07-19 09:00:00 20 0 Calma 4 Este 0 -- -- 89
2020-07-19 08:00:00 17.2 0 Calma 3 Este 0 -- -- 90
2020-07-19 07:00:00 16.2 0 Calma 5 Noroeste 0 -- -- 90
2020-07-19 06:00:00 16.5 0 Calma 6 Noroeste 0 -- -- 90
2020-07-19 05:00:00 17 0 Calma 6 Noroeste 0 -- -- 90
2020-07-19 04:00:00 17 0 Calma 4 Este 0 -- -- 90
2020-07-19 03:00:00 17.7 0 Calma 5 Este 0 -- -- 90
2020-07-19 02:00:00 18.2 0 Calma 4 Noroeste 0 -- -- 90
2020-07-19 01:00:00 19.4 0 Calma 5 Este 0 -- -- 88
2020-07-19 00:00:00 20.1 0 Calma 7 Este 0 -- -- 85
2020-07-18 23:00:00 21 0 Calma 6 Oeste 0 -- -- 81
2020-07-18 22:00:00 21.5 3 Oeste 14 Sudoeste 0 -- -- 76
2020-07-18 21:00:00 22.3 5 Oeste 15 Oeste 0 -- -- 69
2020-07-18 20:00:00 23.4 9 Oeste 18 Oeste 0 -- -- 63
2020-07-18 19:00:00 24.1 9 Oeste 19 Oeste 0 -- -- 59
2020-07-18 18:00:00 23.3 10 Oeste 20 Oeste 0 -- -- 59
2020-07-18 17:00:00 24.1 10 Oeste 24 Oeste 0 -- -- 56
2020-07-18 16:00:00 23.9 12 Oeste 22 Oeste 0 -- -- 56
2020-07-18 15:00:00 24.9 10 Oeste 23 Sudoeste 0 -- -- 54
2020-07-18 14:00:00 25 6 Oeste 28 Oeste 0 -- -- 54
2020-07-18 13:00:00 24.3 10 Oeste 25 Oeste 0 -- -- 56
2020-07-18 12:00:00 23.6 13 Oeste 23 Sudoeste 0 -- -- 64
2020-07-18 11:00:00 23 10 Oeste 24 Sudoeste 0 -- -- 66
2020-07-18 10:00:00 23.6 3 Oeste 8 Oeste 0 -- -- 61
2020-07-18 09:00:00 21.6 0 Calma 12 Nordeste 0 -- -- 75
2020-07-18 08:00:00 20 4 Este 6 Este 0 -- -- 85
2020-07-18 07:00:00 18.1 0 Calma 5 Noroeste 0 -- -- 90
2020-07-18 06:00:00 19.1 2 Este 6 Este 0 -- -- 88
2020-07-18 05:00:00 20.2 0 Calma 5 Noroeste 0 -- -- 88
2020-07-18 04:00:00 19.8 0 Calma 4 Este 0 -- -- 89
2020-07-18 03:00:00 19.3 0 Calma 5 Este 0 -- -- 89
2020-07-18 02:00:00 18.7 0 Calma 4 Norte 0 -- -- 90
2020-07-18 01:00:00 19.2 0 Calma 3 Sudeste 0 -- -- 89
2020-07-18 00:00:00 20.4 0 Calma 6 Noroeste 0 -- -- 86
2020-07-17 23:00:00 20.1 0 Calma 5 Norte 0 -- -- 86
2020-07-17 22:00:00 20.9 0 Calma 6 Oeste 0 -- -- 84
2020-07-17 21:00:00 22.4 4 Oeste 14 Sudoeste 0 -- -- 76
2020-07-17 20:00:00 22.6 7 Sudoeste 15 Oeste 0 -- -- 75
2020-07-17 19:00:00 22.7 9 Oeste 23 Oeste 0 -- -- 75
2020-07-17 18:00:00 23.9 11 Oeste 25 Oeste 0 -- -- 65
2020-07-17 17:00:00 25 10 Oeste 35 Oeste 0 -- -- 62
2020-07-17 16:00:00 24.4 16 Oeste 39 Oeste 0 -- -- 57
2020-07-17 15:00:00 25.2 21 Sudoeste 36 Sudoeste 0 -- -- 59
2020-07-17 14:00:00 24.4 20 Sudoeste 37 Sudoeste 0 -- -- 60
2020-07-17 13:00:00 24.3 17 Oeste 30 Sudoeste 0 -- -- 63
2020-07-17 12:00:00 24.5 6 Oeste 19 Oeste 0 -- -- 61
2020-07-17 11:00:00 23.4 6 Sudoeste 15 Oeste 0 -- -- 62
2020-07-17 10:00:00 23.5 0 Calma 7 Este 0 -- -- 63
2020-07-17 09:00:00 20.5 2 Norte -- -- -- -- -- 70
2020-07-17 08:00:00 19.7 0 Calma 6 Nordeste 0 -- -- 74
2020-07-17 07:00:00 19 0 Calma 5 Este 0 -- -- 78
2020-07-17 06:00:00 19.1 2 Nordeste 5 Este 0 -- -- 75
2020-07-17 05:00:00 19.1 0 Calma 8 Norte 0 -- -- 70
2020-07-17 04:00:00 19.8 3 Noroeste 9 Norte 0 -- -- 65
2020-07-17 03:00:00 19.6 0 Calma 5 Norte 0 -- -- 75
2020-07-17 02:00:00 20.6 3 Este 5 Este 0 -- -- 70
2020-07-17 01:00:00 20.1 2 Este 5 Nordeste 0 -- -- 78
2020-07-17 00:00:00 20.3 0 Calma 3 Oeste 0 -- -- 79
2020-07-16 23:00:00 20.9 2 Nordeste 4 Norte 0 -- -- 75
2020-07-16 22:00:00 20.6 0 Calma 7 Oeste 0 -- -- 74
2020-07-16 21:00:00 21.2 5 Oeste 13 Oeste 0 -- -- 70
2020-07-16 20:00:00 21.4 5 Oeste 13 Oeste 0 -- -- 69
2020-07-16 19:00:00 21.4 6 Oeste 17 Oeste 0 -- -- 68
2020-07-16 18:00:00 21.9 10 Oeste 24 Oeste 0 -- -- 66
2020-07-16 17:00:00 22.3 12 Oeste 31 Sudoeste 0 -- -- 64
2020-07-16 16:00:00 22.6 14 Oeste 29 Oeste 0 -- -- 63
2020-07-16 15:00:00 23.4 14 Oeste 41 Sudoeste 0 -- -- 60
2020-07-16 14:00:00 24.1 17 Oeste 33 Oeste 0 -- -- 57
2020-07-16 13:00:00 23.9 15 Sudoeste 28 Sudoeste 0 -- -- 59
2020-07-16 12:00:00 24 10 Sudoeste 23 Oeste 0 -- -- 59
2020-07-16 11:00:00 22.8 4 Sudoeste 15 Oeste 0 -- -- 65
2020-07-16 10:00:00 20.9 3 Norte 8 Norte 0 -- -- 61
2020-07-16 09:00:00 20.6 3 Noroeste 9 Noroeste 0 -- -- 65
2020-07-16 08:00:00 19 2 Noroeste 8 Noroeste 0 -- -- 79
2020-07-16 07:00:00 18.3 0 Calma 4 Nordeste 0 -- -- 89
2020-07-16 06:00:00 18.1 2 Este 6 Este 0 -- -- 89
2020-07-16 05:00:00 17.9 0 Calma 4 Nordeste 0 -- -- 89
2020-07-16 04:00:00 18.8 0 Calma 6 Este 0 -- -- 89
2020-07-16 03:00:00 19.7 0 Calma 3 Oeste 0 -- -- 81
2020-07-16 02:00:00 20.4 0 Calma 5 Nordeste 0 -- -- 76
2020-07-16 01:00:00 20.2 0 Calma 5 Nordeste 0 -- -- 78
2020-07-16 00:00:00 20.1 0 Calma 6 Norte 0 -- -- 79